createdAt,value
2023-02-17T00:00:32.772Z,-0.07
2023-02-17T00:01:38.801Z,-0.07
2023-02-17T00:02:43.145Z,-0.09
2023-02-17T00:03:47.867Z,-0.11
2023-02-17T00:04:57.868Z,-0.13
2023-02-17T00:06:08.028Z,-0.12
2023-02-17T00:07:15.138Z,-0.13
2023-02-17T00:08:19.222Z,-0.13
2023-02-17T00:09:23.729Z,-0.15
2023-02-17T00:10:32.187Z,-0.16
2023-02-17T00:11:38.153Z,-0.16
2023-02-17T00:12:42.428Z,-0.18
2023-02-17T00:13:47.199Z,-0.20
2023-02-17T00:14:53.329Z,-0.20
2023-02-17T00:16:03.826Z,-0.17
2023-02-17T00:17:09.030Z,-0.17
2023-02-17T00:18:13.041Z,-0.16
2023-02-17T00:19:20.388Z,-0.16
2023-02-17T00:20:24.979Z,-0.15
2023-02-17T00:21:35.307Z,-0.15
2023-02-17T00:22:41.317Z,-0.15
2023-02-17T00:23:47.215Z,-0.14
2023-02-17T00:24:51.511Z,-0.13
2023-02-17T00:25:57.152Z,-0.13
2023-02-17T00:27:03.709Z,-0.11
2023-02-17T00:28:08.844Z,-0.09
2023-02-17T00:29:13.412Z,-0.08
2023-02-17T00:30:18.216Z,-0.07
2023-02-17T00:31:24.383Z,-0.04
2023-02-17T00:32:30.300Z,-0.02
2023-02-17T00:33:34.815Z,-0.02
2023-02-17T00:34:39.722Z,0.04
2023-02-17T00:35:45.430Z,0.07
2023-02-17T00:36:52.744Z,0.08
2023-02-17T00:38:00.616Z,0.10
2023-02-17T00:39:06.876Z,0.13
2023-02-17T00:40:12.544Z,0.17
2023-02-17T00:41:18.633Z,0.18
2023-02-17T00:42:25.931Z,0.19
2023-02-17T00:43:30.450Z,0.23
2023-02-17T00:44:34.732Z,0.23
2023-02-17T00:45:41.761Z,0.24
2023-02-17T00:46:46.976Z,0.26
2023-02-17T00:47:51.101Z,0.27
2023-02-17T00:49:02.745Z,0.27
2023-02-17T00:50:07.959Z,0.27
2023-02-17T00:51:14.375Z,0.29
2023-02-17T00:52:18.207Z,0.28
2023-02-17T00:53:23.973Z,0.29
2023-02-17T00:54:28.710Z,0.29
2023-02-17T00:55:32.777Z,0.33
2023-02-17T00:56:37.441Z,0.33
2023-02-17T00:57:41.557Z,0.34
2023-02-17T00:58:45.967Z,0.35
2023-02-17T00:59:50.232Z,0.35
2023-02-17T01:00:57.036Z,0.35
2023-02-17T01:02:01.254Z,0.36
2023-02-17T01:03:07.131Z,0.34
2023-02-17T01:04:12.829Z,0.35
2023-02-17T01:05:17.182Z,0.32
2023-02-17T01:07:48.635Z,0.29
2023-02-17T01:08:53.115Z,0.28
2023-02-17T01:09:57.195Z,0.28
2023-02-17T01:11:01.568Z,0.28
2023-02-17T01:12:05.778Z,0.27
2023-02-17T01:13:10.614Z,0.27
2023-02-17T01:14:20.034Z,0.26
2023-02-17T01:15:27.681Z,0.25
2023-02-17T01:16:34.763Z,0.24
2023-02-17T01:17:53.265Z,0.21
2023-02-17T01:18:59.198Z,0.20
2023-02-17T01:20:04.380Z,0.21
2023-02-17T01:21:23.008Z,0.19
2023-02-17T01:22:31.806Z,0.19
2023-02-17T01:23:38.074Z,0.19
2023-02-17T01:24:41.975Z,0.17
2023-02-17T01:25:49.494Z,0.16
2023-02-17T01:26:56.128Z,0.17
2023-02-17T01:28:01.476Z,0.16
2023-02-17T01:29:07.609Z,0.18
2023-02-17T01:30:29.207Z,0.19
2023-02-17T01:31:26.166Z,0.20
2023-02-17T01:32:30.230Z,0.20
2023-02-17T01:33:34.273Z,0.21
2023-02-17T01:34:39.046Z,0.21
2023-02-17T01:35:44.717Z,0.23
2023-02-17T01:36:50.858Z,0.20
2023-02-17T01:37:56.447Z,0.20
2023-02-17T01:39:01.192Z,0.23
2023-02-17T01:40:06.465Z,0.20
2023-02-17T01:41:11.751Z,0.20
2023-02-17T01:42:21.558Z,0.21
2023-02-17T01:43:25.754Z,0.20
2023-02-17T01:44:34.262Z,0.21
2023-02-17T01:45:44.424Z,0.20
2023-02-17T01:46:51.068Z,0.20
2023-02-17T01:48:02.613Z,0.23
2023-02-17T01:49:31.622Z,0.23
2023-02-17T01:50:41.334Z,0.24
2023-02-17T01:51:48.548Z,0.24
2023-02-17T01:52:55.269Z,0.23
2023-02-17T01:54:08.389Z,0.20
2023-02-17T01:55:15.500Z,0.20
2023-02-17T01:56:22.686Z,0.21
2023-02-17T01:57:30.168Z,0.20
2023-02-17T01:58:35.181Z,0.19
2023-02-17T01:59:41.416Z,0.19
2023-02-17T02:00:49.108Z,0.19
2023-02-17T02:02:03.398Z,0.19
2023-02-17T02:03:11.274Z,0.20
2023-02-17T02:04:15.575Z,0.20
2023-02-17T02:05:30.613Z,0.18
2023-02-17T02:06:31.596Z,0.19
2023-02-17T02:07:38.665Z,0.18
2023-02-17T02:08:51.310Z,0.18
2023-02-17T02:09:57.908Z,0.17
2023-02-17T02:11:03.009Z,0.17
2023-02-17T02:12:22.724Z,0.18
2023-02-17T02:13:31.626Z,0.18
2023-02-17T02:14:35.865Z,0.19
2023-02-17T02:15:58.142Z,0.19
2023-02-17T02:17:12.714Z,0.19
2023-02-17T02:18:25.436Z,0.19
2023-02-17T02:19:58.003Z,0.21
2023-02-17T02:21:34.012Z,0.19
2023-02-17T02:22:52.875Z,0.17
2023-02-17T02:24:18.149Z,0.17
2023-02-17T02:25:49.368Z,0.17
2023-02-17T02:27:02.359Z,0.18
2023-02-17T02:28:18.447Z,0.17
2023-02-17T02:29:58.799Z,0.17
2023-02-17T02:31:08.705Z,0.17
2023-02-17T02:32:37.708Z,0.18
2023-02-17T02:33:53.370Z,0.18
2023-02-17T02:35:21.097Z,0.18
2023-02-17T02:36:33.923Z,0.17
2023-02-17T02:37:40.940Z,0.18
2023-02-17T02:38:50.847Z,0.18
2023-02-17T02:39:55.593Z,0.17
2023-02-17T02:41:11.551Z,0.19
2023-02-17T02:42:18.871Z,0.18
2023-02-17T02:43:24.572Z,0.17
2023-02-17T02:44:28.836Z,0.17
2023-02-17T02:45:33.152Z,0.17
2023-02-17T02:46:37.712Z,0.17
2023-02-17T02:47:49.066Z,0.18
2023-02-17T02:48:53.530Z,0.17
2023-02-17T02:49:59.336Z,0.17
2023-02-17T02:51:18.404Z,0.17
2023-02-17T02:52:34.542Z,0.15
2023-02-17T02:54:15.593Z,0.10
2023-02-17T02:55:25.231Z,0.09
2023-02-17T02:56:59.648Z,0.06
2023-02-17T02:58:24.468Z,0.05
2023-02-17T03:00:00.172Z,0.05
2023-02-17T03:01:19.381Z,-0.01
2023-02-17T03:02:32.312Z,-0.02
2023-02-17T03:03:51.359Z,-0.01
2023-02-17T03:05:01.108Z,-0.01
2023-02-17T03:06:14.140Z,-0.02
2023-02-17T03:07:27.153Z,-0.01
2023-02-17T03:08:46.401Z,-0.01
2023-02-17T03:09:53.814Z,0.01
2023-02-17T03:10:58.346Z,0.02
2023-02-17T03:12:02.989Z,0.02
2023-02-17T03:13:06.998Z,0.03
2023-02-17T03:14:14.277Z,0.03
2023-02-17T03:15:24.107Z,0.04
2023-02-17T03:16:28.297Z,0.04
2023-02-17T03:17:33.691Z,0.03
2023-02-17T03:18:38.994Z,0.03
2023-02-17T03:19:43.390Z,0.04
2023-02-17T03:20:50.485Z,0.01
2023-02-17T03:22:09.571Z,0.01
2023-02-17T03:23:13.725Z,-0.01
2023-02-17T03:24:18.386Z,-0.01
2023-02-17T03:25:24.037Z,0.03
2023-02-17T03:26:29.737Z,0.05
2023-02-17T03:27:33.883Z,0.05
2023-02-17T03:28:45.097Z,0.09
2023-02-17T03:29:45.465Z,0.09
2023-02-17T03:30:49.742Z,0.07
2023-02-17T03:31:55.748Z,0.05
2023-02-17T03:32:59.929Z,0.02
2023-02-17T03:34:05.734Z,0.01
2023-02-17T03:35:09.979Z,0.04
2023-02-17T03:36:14.320Z,0.05
2023-02-17T03:37:20.056Z,0.05
2023-02-17T03:38:24.433Z,0.04
2023-02-17T03:39:28.729Z,0.04
2023-02-17T03:40:32.904Z,0.03
2023-02-17T03:41:37.091Z,0.02
2023-02-17T03:42:41.194Z,0.02
2023-02-17T03:43:45.381Z,0.06
2023-02-17T03:44:51.624Z,0.06
2023-02-17T03:45:55.972Z,0.05
2023-02-17T03:47:00.343Z,0.05
2023-02-17T03:48:04.952Z,0.03
2023-02-17T03:49:09.352Z,0.06
2023-02-17T03:50:15.442Z,0.05
2023-02-17T03:51:25.033Z,0.05
2023-02-17T03:52:29.176Z,0.05
2023-02-17T03:53:33.583Z,0.05
2023-02-17T03:54:37.997Z,0.00
2023-02-17T03:55:43.836Z,-0.02
2023-02-17T03:56:48.258Z,-0.04
2023-02-17T03:57:52.724Z,-0.06
2023-02-17T03:59:01.074Z,-0.07
2023-02-17T04:00:07.709Z,-0.07
2023-02-17T04:01:14.392Z,-0.10
2023-02-17T04:02:18.667Z,-0.10
2023-02-17T04:03:22.969Z,-0.10
2023-02-17T04:04:27.487Z,-0.10
2023-02-17T04:05:31.763Z,-0.07
2023-02-17T04:06:36.020Z,-0.07
2023-02-17T04:07:40.237Z,-0.05
2023-02-17T04:08:45.884Z,-0.02
2023-02-17T04:09:50.270Z,-0.02
2023-02-17T04:10:56.681Z,0.02
2023-02-17T04:12:02.391Z,0.04
2023-02-17T04:13:08.771Z,0.05
2023-02-17T04:14:13.303Z,0.09
2023-02-17T04:15:17.407Z,0.09
2023-02-17T04:16:23.052Z,0.10
2023-02-17T04:17:27.237Z,0.12
2023-02-17T04:18:32.570Z,0.17
2023-02-17T04:19:36.788Z,0.19
2023-02-17T04:20:41.116Z,0.19
2023-02-17T04:21:45.124Z,-3.02
2023-02-17T04:22:50.476Z,-3.02
2023-02-17T04:23:54.556Z,0.24
2023-02-17T04:24:58.860Z,0.23
2023-02-17T04:26:04.708Z,0.27
2023-02-17T04:27:09.074Z,0.28
2023-02-17T04:28:15.486Z,0.28
2023-02-17T04:29:21.088Z,0.31
2023-02-17T04:30:25.455Z,0.34
2023-02-17T04:31:29.843Z,0.33
2023-02-17T04:32:34.115Z,0.37
2023-02-17T04:33:38.441Z,0.37
2023-02-17T04:34:45.279Z,0.36
2023-02-17T04:35:51.509Z,0.37
2023-02-17T04:36:55.608Z,0.37
2023-02-17T04:37:59.885Z,0.39
2023-02-17T04:39:04.095Z,0.41
2023-02-17T04:40:09.175Z,0.41
2023-02-17T04:41:13.417Z,0.41
2023-02-17T04:42:17.603Z,0.41
2023-02-17T04:43:22.353Z,0.41
2023-02-17T04:44:26.487Z,0.42
2023-02-17T04:45:31.244Z,0.40
2023-02-17T04:46:37.590Z,0.41
2023-02-17T04:47:43.285Z,0.39
2023-02-17T04:48:47.582Z,0.40
2023-02-17T04:49:51.906Z,0.40
2023-02-17T04:50:57.721Z,0.38
2023-02-17T04:52:01.998Z,0.38
2023-02-17T04:53:06.268Z,0.35
2023-02-17T04:54:12.110Z,0.36
2023-02-17T04:55:17.731Z,0.34
2023-02-17T04:56:23.595Z,0.35
2023-02-17T04:58:26.279Z,0.35
2023-02-17T04:59:01.298Z,0.35
2023-02-17T05:00:06.555Z,0.35
2023-02-17T05:01:11.908Z,0.32
2023-02-17T05:02:21.526Z,0.31
2023-02-17T05:03:25.795Z,0.28
2023-02-17T05:04:40.651Z,0.29
2023-02-17T05:05:45.165Z,0.28
2023-02-17T05:06:50.864Z,0.29
2023-02-17T05:07:56.571Z,0.30
2023-02-17T05:09:02.194Z,0.30
2023-02-17T05:10:11.439Z,0.30
2023-02-17T05:11:17.127Z,0.30
2023-02-17T05:12:22.990Z,0.30
2023-02-17T05:13:32.875Z,0.30
2023-02-17T05:15:02.230Z,0.28
2023-02-17T05:16:08.729Z,0.29
2023-02-17T05:17:14.918Z,0.29
2023-02-17T05:18:18.980Z,0.26
2023-02-17T05:19:25.027Z,0.28
2023-02-17T05:20:29.548Z,0.29
2023-02-17T05:21:33.918Z,0.30
2023-02-17T05:22:39.932Z,0.32
2023-02-17T05:23:44.199Z,0.30
2023-02-17T05:24:54.717Z,0.31
2023-02-17T05:25:58.814Z,0.30
2023-02-17T05:27:03.443Z,0.30
2023-02-17T05:28:15.932Z,0.30
2023-02-17T05:29:24.413Z,0.28
2023-02-17T05:30:30.389Z,0.26
2023-02-17T05:31:37.540Z,0.25
2023-02-17T05:32:52.163Z,0.26
2023-02-17T05:33:59.852Z,0.26
2023-02-17T05:35:06.721Z,0.28
2023-02-17T05:36:16.266Z,0.27
2023-02-17T05:37:25.191Z,0.23
2023-02-17T05:38:32.056Z,0.24
2023-02-17T05:39:39.808Z,0.19
2023-02-17T05:40:45.203Z,0.16
2023-02-17T05:41:58.303Z,0.20
2023-02-17T05:43:04.099Z,0.19
2023-02-17T05:44:11.909Z,0.19
2023-02-17T05:45:17.636Z,0.23
2023-02-17T05:46:33.187Z,0.23
2023-02-17T05:47:29.828Z,0.25
2023-02-17T05:48:36.817Z,0.26
2023-02-17T05:49:45.407Z,0.26
2023-02-17T05:50:53.208Z,0.26
2023-02-17T05:51:58.874Z,0.27
2023-02-17T05:53:03.256Z,0.29
2023-02-17T05:54:09.069Z,0.31
2023-02-17T05:55:17.698Z,0.31
2023-02-17T05:56:26.848Z,0.31
2023-02-17T05:57:34.196Z,0.30
2023-02-17T05:58:45.112Z,0.33
2023-02-17T05:59:47.821Z,0.31
2023-02-17T06:00:54.093Z,0.33
2023-02-17T06:01:58.609Z,0.29
2023-02-17T06:03:06.688Z,0.31
2023-02-17T06:04:11.003Z,0.34
2023-02-17T06:05:17.566Z,0.36
2023-02-17T06:06:23.406Z,0.36
2023-02-17T06:07:29.220Z,0.35
2023-02-17T06:08:35.250Z,0.30
2023-02-17T06:09:39.759Z,0.32
2023-02-17T06:10:44.691Z,0.30
2023-02-17T06:11:50.733Z,0.35
2023-02-17T06:12:58.482Z,0.35
2023-02-17T06:14:02.714Z,0.28
2023-02-17T06:15:14.586Z,0.20
2023-02-17T06:16:20.143Z,0.20
2023-02-17T06:17:27.395Z,0.26
2023-02-17T06:18:33.107Z,0.28
2023-02-17T06:19:41.325Z,0.31
2023-02-17T06:20:45.576Z,0.30
2023-02-17T06:21:49.952Z,0.30
2023-02-17T06:22:57.373Z,0.34
2023-02-17T06:24:01.605Z,0.34
2023-02-17T06:25:06.448Z,0.34
2023-02-17T06:26:13.686Z,0.32
2023-02-17T06:27:16.926Z,0.35
2023-02-17T06:28:21.292Z,0.35
2023-02-17T06:29:27.554Z,0.38
2023-02-17T06:31:07.062Z,0.39
2023-02-17T06:33:19.857Z,0.37
2023-02-17T06:34:22.180Z,0.37
2023-02-17T06:34:26.969Z,0.33
2023-02-17T06:35:33.978Z,0.35
2023-02-17T06:36:40.439Z,0.33
2023-02-17T06:37:44.704Z,0.36
2023-02-17T06:38:51.954Z,0.34
2023-02-17T06:40:00.451Z,0.34
2023-02-17T06:41:08.350Z,0.34
2023-02-17T06:42:14.058Z,0.35
2023-02-17T06:43:18.219Z,0.40
2023-02-17T06:44:24.772Z,0.43
2023-02-17T06:45:37.136Z,0.38
2023-02-17T06:47:04.203Z,0.40
2023-02-17T06:47:48.592Z,0.39
2023-02-17T06:48:57.821Z,0.40
2023-02-17T06:50:03.298Z,0.40
2023-02-17T06:51:31.900Z,0.41
2023-02-17T06:52:17.391Z,0.43
2023-02-17T06:53:25.836Z,0.47
2023-02-17T06:54:31.311Z,0.49
2023-02-17T06:55:35.495Z,0.48
2023-02-17T06:56:41.243Z,0.50
2023-02-17T06:57:46.877Z,0.51
2023-02-17T06:58:52.463Z,0.51
2023-02-17T06:59:56.640Z,0.56
2023-02-17T07:01:04.044Z,0.52
2023-02-17T07:02:14.881Z,0.57
2023-02-17T07:03:17.093Z,0.53
2023-02-17T07:04:28.464Z,0.50
2023-02-17T07:05:39.317Z,0.57
2023-02-17T07:06:43.976Z,0.60
2023-02-17T07:07:53.222Z,0.60
2023-02-17T07:09:02.063Z,0.63
2023-02-17T07:10:08.516Z,0.66
2023-02-17T07:11:18.049Z,0.66
2023-02-17T07:12:22.460Z,0.68
2023-02-17T07:13:26.498Z,0.72
2023-02-17T07:14:35.994Z,0.60
2023-02-17T07:15:40.071Z,0.60
2023-02-17T07:16:44.628Z,0.65
2023-02-17T07:17:50.113Z,0.69
2023-02-17T07:18:56.235Z,0.66
2023-02-17T07:20:06.930Z,0.66
2023-02-17T07:21:10.247Z,0.65
2023-02-17T07:22:23.241Z,0.68
2023-02-17T07:23:27.742Z,0.71
2023-02-17T07:24:39.290Z,-2.42
2023-02-17T07:25:45.322Z,0.74
2023-02-17T07:26:52.646Z,0.74
2023-02-17T07:27:56.883Z,0.74
2023-02-17T07:29:04.224Z,0.75
2023-02-17T07:30:13.470Z,0.78
2023-02-17T07:31:18.863Z,0.83
2023-02-17T07:32:25.402Z,0.83
2023-02-17T07:33:36.496Z,0.84
2023-02-17T07:34:38.764Z,0.85
2023-02-17T07:35:44.963Z,0.82
2023-02-17T07:36:51.913Z,0.82
2023-02-17T07:37:59.598Z,0.82
2023-02-17T07:39:04.805Z,0.85
2023-02-17T07:40:13.558Z,0.85
2023-02-17T07:41:22.645Z,0.86
2023-02-17T07:42:28.864Z,0.85
2023-02-17T07:43:33.089Z,0.87
2023-02-17T07:44:37.332Z,0.90
2023-02-17T07:45:46.209Z,0.94
2023-02-17T07:46:56.681Z,0.99
2023-02-17T07:48:00.516Z,1.02
2023-02-17T07:49:06.028Z,1.02
2023-02-17T07:50:13.226Z,1.03
2023-02-17T07:51:20.843Z,1.04
2023-02-17T07:52:25.031Z,1.06
2023-02-17T07:53:30.558Z,1.03
2023-02-17T07:54:36.211Z,0.99
2023-02-17T07:55:40.309Z,1.04
2023-02-17T07:56:49.133Z,1.09
2023-02-17T07:57:56.840Z,1.12
2023-02-17T07:59:02.137Z,1.10
2023-02-17T08:00:12.063Z,1.15
2023-02-17T08:01:21.922Z,1.13
2023-02-17T08:02:27.910Z,1.09
2023-02-17T08:03:32.000Z,1.07
2023-02-17T08:04:36.111Z,1.10
2023-02-17T08:05:42.336Z,1.10
2023-02-17T08:06:52.570Z,1.16
2023-02-17T08:07:57.030Z,1.21
2023-02-17T08:09:02.658Z,1.22
2023-02-17T08:10:10.388Z,1.25
2023-02-17T08:11:17.050Z,1.28
2023-02-17T08:12:25.457Z,1.33
2023-02-17T08:13:31.333Z,1.32
2023-02-17T08:14:38.072Z,1.29
2023-02-17T08:15:45.123Z,1.36
2023-02-17T08:16:51.283Z,1.43
2023-02-17T08:17:56.995Z,1.45
2023-02-17T08:19:02.771Z,1.45
2023-02-17T08:20:10.445Z,1.49
2023-02-17T08:21:17.367Z,1.54
2023-02-17T08:22:21.806Z,1.55
2023-02-17T08:25:29.471Z,1.64
2023-02-17T08:27:38.241Z,1.70
2023-02-17T08:28:40.387Z,1.70
2023-02-17T10:29:36.697Z,2.32
2023-02-17T10:31:01.514Z,2.34
2023-02-17T10:32:23.061Z,2.32
2023-02-17T10:33:32.483Z,2.29
2023-02-17T10:34:49.316Z,2.29
2023-02-17T10:36:05.986Z,2.26
2023-02-17T10:37:41.640Z,2.25
2023-02-17T10:39:02.253Z,2.17
2023-02-17T10:40:14.498Z,2.17
2023-02-17T10:41:19.505Z,2.16
2023-02-17T10:42:33.770Z,2.16
2023-02-17T10:43:41.168Z,2.23
2023-02-17T10:44:45.619Z,2.27
2023-02-17T10:46:15.063Z,2.27
2023-02-17T10:47:22.773Z,2.31
2023-02-17T12:34:06.769Z,2.05
2023-02-17T12:35:52.808Z,2.08
2023-02-17T12:36:50.020Z,2.09
2023-02-17T12:38:08.414Z,2.13
2023-02-17T12:39:22.301Z,2.16
2023-02-17T12:40:39.884Z,2.17
2023-02-17T12:42:12.553Z,2.17
2023-02-17T12:43:34.429Z,2.14
2023-02-17T12:44:41.592Z,2.14
2023-02-17T12:45:50.039Z,2.15
2023-02-17T12:46:56.720Z,2.15
2023-02-17T12:48:20.039Z,2.17
2023-02-17T12:49:27.404Z,2.13
2023-02-17T12:50:54.278Z,2.06
2023-02-17T12:52:20.797Z,2.09
2023-02-17T12:53:33.838Z,2.10
2023-02-17T12:54:42.834Z,2.13
2023-02-17T12:56:05.043Z,2.14
2023-02-17T12:57:21.775Z,2.13
2023-02-17T12:58:32.795Z,2.16
2023-02-17T12:59:44.834Z,2.17
2023-02-17T13:00:56.341Z,2.21
2023-02-17T13:02:19.935Z,2.21
2023-02-17T13:03:21.786Z,2.19
2023-02-17T13:04:30.345Z,2.12
2023-02-17T13:05:51.528Z,2.12
2023-02-17T13:07:36.389Z,2.09
2023-02-17T13:08:25.082Z,2.09
2023-02-17T13:09:44.270Z,2.09
2023-02-17T13:11:12.673Z,2.00
2023-02-17T13:12:27.471Z,1.96
2023-02-17T13:13:35.349Z,1.96
2023-02-17T13:14:51.242Z,1.93
2023-02-17T13:16:05.759Z,1.93
2023-02-17T13:18:58.452Z,1.91
2023-02-17T13:20:43.911Z,1.86
2023-02-17T13:21:27.488Z,1.90
2023-02-17T13:22:38.424Z,1.90
2023-02-17T13:23:48.886Z,1.90
2023-02-17T13:25:03.826Z,1.92
2023-02-17T13:26:31.938Z,1.92
2023-02-17T13:27:44.389Z,1.84
2023-02-17T13:28:52.053Z,1.86
2023-02-17T13:30:25.814Z,1.85
2023-02-17T13:33:08.481Z,1.85
2023-02-17T13:34:12.202Z,1.85
2023-02-17T13:35:21.847Z,1.87
2023-02-17T13:36:33.284Z,1.87
2023-02-17T13:38:09.290Z,1.87
2023-02-17T13:39:20.344Z,1.86
2023-02-17T13:40:29.973Z,1.86
2023-02-17T13:41:50.484Z,1.81
2023-02-17T13:42:59.616Z,1.80
2023-02-17T13:44:41.247Z,1.78
2023-02-17T13:48:41.785Z,1.73
2023-02-17T13:49:56.171Z,1.73
2023-02-17T13:51:09.732Z,1.72
2023-02-17T14:15:52.095Z,1.18
2023-02-17T14:17:02.131Z,1.19
2023-02-17T14:18:17.239Z,1.23
2023-02-17T14:19:22.878Z,1.23
2023-02-17T14:20:36.145Z,1.23
2023-02-17T14:21:46.493Z,1.23
2023-02-17T14:23:04.418Z,1.24
2023-02-17T14:24:11.854Z,1.25
2023-02-17T14:25:20.614Z,1.28
2023-02-17T14:26:37.213Z,1.24
2023-02-17T14:27:49.239Z,1.30
2023-02-17T14:28:56.067Z,1.31
2023-02-17T14:30:00.196Z,1.30
2023-02-17T14:31:12.969Z,1.30
2023-02-17T14:32:43.788Z,1.30
2023-02-17T14:33:48.740Z,1.26
2023-02-17T14:34:58.740Z,1.21
2023-02-17T14:37:35.990Z,1.19
2023-02-17T14:38:43.352Z,1.13
2023-02-17T14:39:49.796Z,1.10
2023-02-17T14:40:54.727Z,1.09
2023-02-17T14:42:07.892Z,1.09
2023-02-17T14:43:30.045Z,1.09
2023-02-17T14:44:39.132Z,1.06
2023-02-17T14:45:47.110Z,1.03
2023-02-17T14:46:50.686Z,1.04
2023-02-17T14:48:00.926Z,1.04
2023-02-17T14:49:08.766Z,1.02
2023-02-17T14:50:17.033Z,1.04
2023-02-17T14:51:33.582Z,1.05
2023-02-17T14:52:35.021Z,1.06
2023-02-17T14:53:44.711Z,1.07
2023-02-17T14:54:51.281Z,1.07
2023-02-17T14:56:02.724Z,1.06
2023-02-17T14:57:19.452Z,1.06
2023-02-17T14:58:26.273Z,1.02
2023-02-17T14:59:33.509Z,1.01
2023-02-17T15:00:43.970Z,0.99
2023-02-17T15:01:46.994Z,0.99
2023-02-17T15:03:26.994Z,0.97
2023-02-17T15:04:07.256Z,0.95
2023-02-17T15:05:11.732Z,0.97
2023-02-17T15:06:22.462Z,0.97
2023-02-17T15:07:28.877Z,0.93
2023-02-17T15:08:42.711Z,0.90
2023-02-17T15:11:43.192Z,0.90
2023-02-17T15:12:56.677Z,0.89
2023-02-17T15:14:02.989Z,0.90
2023-02-17T15:15:12.081Z,0.90
2023-02-17T15:16:37.141Z,0.86
2023-02-17T15:17:59.163Z,0.90
2023-02-17T15:19:04.569Z,0.90
2023-02-17T15:20:09.484Z,-2.26
2023-02-17T15:21:34.134Z,0.90
2023-02-17T15:22:38.906Z,0.93
2023-02-17T15:23:58.834Z,0.95
2023-02-17T15:26:14.684Z,0.96
2023-02-17T15:27:23.126Z,0.99
2023-02-17T15:28:27.604Z,1.03
2023-02-17T15:31:01.442Z,1.06
2023-02-17T15:32:15.188Z,1.07
2023-02-17T15:33:30.154Z,1.07
2023-02-17T15:34:38.347Z,1.07
2023-02-17T15:35:50.307Z,1.06
2023-02-17T15:38:05.969Z,1.06
2023-02-17T15:39:45.035Z,1.09
2023-02-17T15:40:30.164Z,1.07
2023-02-17T15:41:46.536Z,1.07
2023-02-17T15:44:28.905Z,1.07
2023-02-17T15:48:46.322Z,1.10
2023-02-17T15:49:55.489Z,1.08
2023-02-17T15:51:08.516Z,1.08
2023-02-17T15:52:17.988Z,1.09
2023-02-17T15:56:54.918Z,1.10
2023-02-17T16:01:00.325Z,1.09
2023-02-17T16:01:48.058Z,1.04
2023-02-17T16:02:54.520Z,1.04
2023-02-17T17:26:49.238Z,0.45
2023-02-17T17:27:18.089Z,0.45
2023-02-17T17:28:35.682Z,0.44
2023-02-17T17:32:56.848Z,0.57
2023-02-17T17:34:49.794Z,0.47
2023-02-17T17:36:15.851Z,0.44
2023-02-17T17:37:18.886Z,0.46
2023-02-17T17:38:38.079Z,0.46
2023-02-17T17:39:41.821Z,0.45
2023-02-17T17:43:08.668Z,0.44
2023-02-17T17:44:57.799Z,0.42
2023-02-17T17:46:02.617Z,0.40
2023-02-17T18:01:25.449Z,0.07
2023-02-17T18:01:50.377Z,0.05
2023-02-17T18:19:53.300Z,0.01
2023-02-17T18:23:45.579Z,0.16
2023-02-17T18:24:55.449Z,0.09
2023-02-17T18:26:05.954Z,0.10
2023-02-17T18:27:16.031Z,0.12
2023-02-17T18:28:33.458Z,0.10
2023-02-17T18:29:39.213Z,0.13
2023-02-17T18:30:59.043Z,0.14
2023-02-17T18:32:00.000Z,0.13
2023-02-17T18:33:13.041Z,0.13
2023-02-17T18:34:47.473Z,0.14
2023-02-17T18:35:38.141Z,0.15
2023-02-17T18:36:50.820Z,0.15
2023-02-17T18:38:00.932Z,0.14
2023-02-17T18:39:13.041Z,0.13
2023-02-17T18:40:19.880Z,0.17
2023-02-17T18:41:52.330Z,0.16
2023-02-17T18:42:55.417Z,0.16
2023-02-17T18:44:22.944Z,0.13
2023-02-17T18:46:35.779Z,0.15
2023-02-17T18:47:45.279Z,0.12
2023-02-17T18:52:00.930Z,0.13
2023-02-17T18:52:39.179Z,0.12
2023-02-17T18:53:53.999Z,0.12
2023-02-17T18:54:59.367Z,0.11
2023-02-17T19:15:32.371Z,-0.13
2023-02-17T19:18:25.709Z,-0.08
2023-02-17T21:39:07.060Z,-0.05
2023-02-17T21:40:42.878Z,-0.01
2023-02-17T23:32:55.174Z,0.14
2023-02-17T23:34:03.017Z,0.15
